createdAt,value
2019-04-20T00:01:28.006Z,99124.58
2019-04-20T00:03:55.305Z,99120.45
2019-04-20T00:06:27.107Z,99116.53
2019-04-20T00:09:04.687Z,99118.41
2019-04-20T00:11:41.727Z,99123.42
2019-04-20T00:14:08.510Z,99117.52
2019-04-20T00:16:33.774Z,99119.41
2019-04-20T00:19:05.907Z,99117.47
2019-04-20T00:21:42.771Z,99118.17
2019-04-20T00:24:18.043Z,99114.47
2019-04-20T00:27:08.492Z,99110.42
2019-04-20T00:29:35.545Z,99110.19
2019-04-20T00:31:59.184Z,99113.88
2019-04-20T00:34:26.755Z,99115.45
2019-04-20T00:36:52.422Z,99109.15
2019-04-20T00:39:23.785Z,99110.70
2019-04-20T00:42:00.432Z,99110.45
2019-04-20T00:44:31.639Z,99109.20
2019-04-20T00:47:08.624Z,99109.06
2019-04-20T00:49:44.565Z,99107.77
2019-04-20T00:52:31.159Z,99106.31
2019-04-20T00:54:34.900Z,99110.75
2019-04-20T00:57:13.443Z,99114.11
2019-04-20T00:59:59.275Z,99108.13
2019-04-20T01:02:20.922Z,99115.65
2019-04-20T01:05:02.454Z,99110.83
2019-04-20T01:07:27.419Z,99113.02
2019-04-20T01:10:07.013Z,99111.77
2019-04-20T01:12:40.250Z,99114.12
2019-04-20T01:15:16.680Z,99113.37
2019-04-20T01:17:43.109Z,99114.53
2019-04-20T01:20:18.007Z,99114.11
2019-04-20T01:22:56.056Z,99111.09
2019-04-20T01:25:28.408Z,99115.79
2019-04-20T01:28:10.244Z,99116.46
2019-04-20T01:30:33.954Z,99118.30
2019-04-20T01:33:12.678Z,99119.66
2019-04-20T01:35:49.137Z,99115.84
2019-04-20T01:38:20.893Z,99114.78
2019-04-20T01:40:36.097Z,99115.80
2019-04-20T01:43:07.894Z,99112.46
2019-04-20T01:45:41.970Z,99117.45
2019-04-20T01:48:15.105Z,99113.55
2019-04-20T01:51:01.896Z,99117.43
2019-04-20T01:53:50.402Z,99116.59
2019-04-20T01:56:24.773Z,99113.19
2019-04-20T01:58:58.212Z,99115.66
2019-04-20T02:01:25.123Z,99122.27
2019-04-20T02:04:06.394Z,99122.48
2019-04-20T02:06:43.546Z,99123.38
2019-04-20T02:09:13.484Z,99122.53
2019-04-20T02:11:44.691Z,99119.83
2019-04-20T02:14:14.303Z,99118.97
2019-04-20T02:16:47.998Z,99124.42
2019-04-20T02:19:30.450Z,99122.72
2019-04-20T02:22:03.585Z,99116.73
2019-04-20T02:24:21.670Z,99121.41
2019-04-20T02:26:52.099Z,99121.90
2019-04-20T02:29:48.850Z,99120.35
2019-04-20T02:32:23.917Z,99125.09
2019-04-20T02:35:07.184Z,99125.45
2019-04-20T02:37:58.480Z,99121.30
2019-04-20T02:40:20.663Z,99119.49
2019-04-20T02:42:53.603Z,99122.92
2019-04-20T02:45:28.260Z,99120.05
2019-04-20T02:47:51.280Z,99124.98
2019-04-20T02:55:33.957Z,99123.05
2019-04-20T02:58:05.314Z,99126.00
2019-04-20T03:00:44.442Z,99127.41
2019-04-20T03:02:55.322Z,99127.47
2019-04-20T03:05:28.317Z,99128.16
2019-04-20T03:08:04.665Z,99125.84
2019-04-20T03:10:47.313Z,99128.69
2019-04-20T03:13:15.425Z,99121.70
2019-04-20T03:15:43.359Z,99119.88
2019-04-20T03:18:17.934Z,99125.69
2019-04-20T03:20:46.518Z,99126.65
2019-04-20T03:23:36.094Z,99123.86
2019-04-20T03:26:13.858Z,99127.36
2019-04-20T03:28:51.549Z,99128.67
2019-04-20T03:34:23.226Z,99127.86
2019-04-20T03:36:44.706Z,99122.73
2019-04-20T03:39:07.018Z,99124.75
2019-04-20T03:41:26.388Z,99132.44
2019-04-20T03:43:49.840Z,99137.84
2019-04-20T03:46:31.951Z,99135.30
2019-04-20T03:49:10.657Z,99134.50
2019-04-20T03:51:47.121Z,99133.83
2019-04-20T03:54:19.973Z,99136.50
2019-04-20T03:56:54.444Z,99135.50
2019-04-20T03:59:34.668Z,99146.85
2019-04-20T04:05:04.378Z,99148.16
2019-04-20T04:07:29.582Z,99147.30
2019-04-20T04:10:08.180Z,99151.98
2019-04-20T04:13:09.809Z,99143.83
2019-04-20T04:15:48.355Z,99151.30
2019-04-20T04:18:24.180Z,99148.59
2019-04-20T04:20:56.820Z,99150.34
2019-04-20T04:23:38.232Z,99153.02
2019-04-20T04:26:08.591Z,99147.87
2019-04-20T04:28:42.124Z,99152.32
2019-04-20T04:31:24.669Z,99150.16
2019-04-20T04:33:55.819Z,99151.11
2019-04-20T04:36:17.848Z,99157.32
2019-04-20T04:41:27.080Z,99159.20
2019-04-20T04:43:53.983Z,99165.38
2019-04-20T04:46:10.740Z,99162.48
2019-04-20T04:48:44.625Z,99166.17
2019-04-20T04:51:20.706Z,99165.70
2019-04-20T04:53:55.174Z,99175.34
2019-04-20T04:56:20.052Z,99178.43
2019-04-20T04:58:49.559Z,99181.39
2019-04-20T05:01:25.115Z,99174.81
2019-04-20T05:04:17.200Z,99179.30
2019-04-20T05:06:37.806Z,99181.23
2019-04-20T05:09:00.843Z,99184.79
2019-04-20T05:11:30.022Z,99183.95
2019-04-20T05:14:06.744Z,99182.66
2019-04-20T05:16:50.088Z,99186.75
2019-04-20T05:19:23.511Z,99187.98
2019-04-20T05:22:08.243Z,99185.79
2019-04-20T05:24:33.745Z,99187.03
2019-04-20T05:27:30.229Z,99187.22
2019-04-20T05:29:44.375Z,99187.33
2019-04-20T05:32:23.585Z,99186.95
2019-04-20T05:35:10.947Z,99189.00
2019-04-20T05:37:41.271Z,99184.90
2019-04-20T05:40:16.198Z,99179.10
2019-04-20T05:42:48.498Z,99179.98
2019-04-20T05:45:21.818Z,99180.33
2019-04-20T05:47:53.649Z,99186.84
2019-04-20T05:50:29.058Z,99192.56
2019-04-20T05:53:02.805Z,99185.03
2019-04-20T05:55:37.433Z,99189.44
2019-04-20T05:58:11.247Z,99190.75
2019-04-20T06:00:49.891Z,99191.27
2019-04-20T06:03:11.003Z,99192.40
2019-04-20T06:05:52.297Z,99197.73
2019-04-20T06:08:27.731Z,99195.41
2019-04-20T06:10:52.170Z,99190.73
2019-04-20T06:13:22.946Z,99191.86
2019-04-20T06:16:07.394Z,99192.72
2019-04-20T06:18:45.931Z,99189.31
2019-04-20T06:21:31.330Z,99190.27
2019-04-20T06:24:24.925Z,99188.25
2019-04-20T06:29:08.304Z,99190.41
2019-04-20T06:31:41.705Z,99196.02
2019-04-20T06:37:06.864Z,99186.24
2019-04-20T06:42:14.071Z,99199.34
2019-04-20T06:44:39.704Z,99200.30
2019-04-20T06:47:24.469Z,99195.62
2019-04-20T06:49:56.516Z,99197.09
2019-04-20T06:52:24.351Z,99196.42
2019-04-20T06:57:43.463Z,99189.48
2019-04-20T07:02:48.159Z,99194.54
2019-04-20T07:05:20.767Z,99192.60
2019-04-20T07:08:04.273Z,99195.37
2019-04-20T07:10:34.453Z,99186.18
2019-04-20T07:12:55.210Z,99190.07
2019-04-20T07:15:29.157Z,99185.87
2019-04-20T07:18:13.835Z,99190.00
2019-04-20T07:20:55.509Z,99190.39
2019-04-20T07:25:54.263Z,99184.33
2019-04-20T07:28:31.313Z,99186.82
2019-04-20T07:31:09.330Z,99188.73
2019-04-20T07:33:44.598Z,99188.53
2019-04-20T07:36:19.528Z,99190.17
2019-04-20T07:38:52.159Z,99188.23
2019-04-20T07:41:26.220Z,99186.05
2019-04-20T07:44:01.170Z,99189.71
2019-04-20T07:46:34.888Z,99184.08
2019-04-20T07:48:54.077Z,99185.95
2019-04-20T07:51:14.188Z,99186.30
2019-04-20T07:53:59.482Z,99185.45
2019-04-20T07:56:30.556Z,99180.61
2019-04-20T07:58:50.885Z,99175.95
2019-04-20T08:01:54.747Z,99175.45
2019-04-20T08:04:23.669Z,99175.45
2019-04-20T08:06:48.774Z,99180.18
2019-04-20T08:09:21.824Z,99163.96
2019-04-20T08:12:14.280Z,99167.47
2019-04-20T08:14:52.174Z,99167.84
2019-04-20T08:17:31.008Z,99168.63
2019-04-20T08:19:42.391Z,99165.80
2019-04-20T08:22:24.734Z,99164.33
2019-04-20T08:24:45.354Z,99165.67
2019-04-20T08:27:04.587Z,99166.49
2019-04-20T08:29:49.698Z,99160.25
2019-04-20T08:32:37.731Z,99158.92
2019-04-20T08:35:15.495Z,99162.57
2019-04-20T08:37:47.001Z,99165.80
2019-04-20T08:40:19.460Z,99162.81
2019-04-20T08:42:56.990Z,99164.36
2019-04-20T08:45:24.153Z,99156.09
2019-04-20T08:47:57.025Z,99153.61
2019-04-20T08:50:22.374Z,99160.48
2019-04-20T08:53:09.995Z,99149.55
2019-04-20T08:55:29.499Z,99152.02
2019-04-20T08:57:42.460Z,99150.44
2019-04-20T09:00:29.740Z,99151.14
2019-04-20T09:03:02.342Z,99139.02
2019-04-20T09:05:39.927Z,99133.47
2019-04-20T09:08:08.350Z,99132.59
2019-04-20T09:10:53.998Z,99133.90
2019-04-20T09:13:23.112Z,99135.23
2019-04-20T09:15:47.476Z,99130.01
2019-04-20T09:18:26.288Z,99135.60
2019-04-20T09:20:59.293Z,99131.77
2019-04-20T09:23:38.143Z,99131.00
2019-04-20T09:26:15.040Z,99118.81
2019-04-20T09:28:56.748Z,99113.77
2019-04-20T09:31:35.874Z,99109.03
2019-04-20T09:34:13.054Z,99109.06
2019-04-20T09:36:46.169Z,99112.39
2019-04-20T09:39:30.391Z,99108.48
2019-04-20T09:42:01.534Z,99106.84
2019-04-20T09:44:35.410Z,99111.55
2019-04-20T09:47:03.359Z,99104.36
2019-04-20T09:49:46.062Z,99102.16
2019-04-20T09:52:16.980Z,99102.95
2019-04-20T09:54:58.025Z,99105.77
2019-04-20T10:00:10.360Z,99098.48
2019-04-20T10:02:25.922Z,99092.64
2019-04-20T10:04:53.469Z,99094.73
2019-04-20T10:07:26.184Z,99096.91
2019-04-20T10:09:55.890Z,99087.52
2019-04-20T10:12:26.130Z,99084.89
2019-04-20T10:14:57.538Z,99084.91
2019-04-20T10:17:31.316Z,99094.61
2019-04-20T10:20:02.542Z,99095.66
2019-04-20T10:22:32.859Z,99084.48
2019-04-20T10:25:04.599Z,99081.41
2019-04-20T10:27:34.909Z,99086.95
2019-04-20T10:30:06.353Z,99080.58
2019-04-20T10:32:40.303Z,99072.49
2019-04-20T10:35:11.812Z,99078.34
2019-04-20T10:37:42.271Z,99070.78
2019-04-20T10:40:13.445Z,99068.13
2019-04-20T10:42:44.032Z,99070.94
2019-04-20T10:45:14.994Z,99064.34
2019-04-20T10:47:45.389Z,99055.49
2019-04-20T10:50:16.863Z,99060.78
2019-04-20T10:52:47.736Z,99062.02
2019-04-20T10:55:18.701Z,99059.13
2019-04-20T10:57:49.390Z,99061.16
2019-04-20T11:00:25.609Z,99067.80
2019-04-20T11:02:55.999Z,99055.11
2019-04-20T11:05:26.533Z,99055.64
2019-04-20T11:07:59.755Z,99059.04
2019-04-20T11:10:46.162Z,99058.58
2019-04-20T11:13:03.207Z,99058.02
2019-04-20T11:15:34.573Z,99053.14
2019-04-20T11:18:05.252Z,99049.13
2019-04-20T11:20:35.651Z,99046.34
2019-04-20T11:23:06.588Z,99044.84
2019-04-20T11:25:37.967Z,99039.56
2019-04-20T11:28:10.204Z,99042.91
2019-04-20T11:30:40.485Z,99034.28
2019-04-20T11:33:11.697Z,99032.36
2019-04-20T11:35:44.570Z,99033.29
2019-04-20T11:38:16.995Z,99032.83
2019-04-20T11:40:48.164Z,99035.89
2019-04-20T11:43:17.966Z,99030.61
2019-04-20T11:45:48.907Z,99023.20
2019-04-20T11:48:19.296Z,99015.60
2019-04-20T11:50:49.608Z,98999.56
2019-04-20T11:53:19.902Z,99004.03
2019-04-20T11:55:50.120Z,99006.08
2019-04-20T11:58:21.711Z,99001.81
2019-04-20T12:01:04.125Z,99003.83
2019-04-20T12:03:37.858Z,99001.43
2019-04-20T12:06:04.676Z,98996.84
2019-04-20T12:08:36.032Z,98996.75
2019-04-20T12:11:21.632Z,98989.99
2019-04-20T12:13:38.590Z,98991.55
2019-04-20T12:16:09.876Z,98984.44
2019-04-20T12:18:40.246Z,98981.13
2019-04-20T12:21:10.710Z,98975.16
2019-04-20T12:23:42.241Z,98978.48
2019-04-20T12:26:13.073Z,98975.55
2019-04-20T12:28:43.463Z,98971.64
2019-04-20T12:31:20.314Z,98965.32
2019-04-20T12:33:46.470Z,98964.23
2019-04-20T12:36:16.840Z,98965.13
2019-04-20T12:38:48.745Z,98963.16
2019-04-20T12:41:33.163Z,98957.55
2019-04-20T12:43:51.944Z,98956.09
2019-04-20T12:46:23.457Z,98952.30
2019-04-20T12:48:55.660Z,98956.43
2019-04-20T12:51:33.925Z,98952.81
2019-04-20T12:53:58.863Z,98950.84
2019-04-20T12:56:30.582Z,98942.44
2019-04-20T12:59:00.873Z,98943.55
2019-04-20T13:01:31.098Z,98933.83
2019-04-20T13:04:03.903Z,98934.06
2019-04-20T13:06:34.133Z,98933.66
2019-04-20T13:09:10.785Z,98928.73
2019-04-20T13:12:04.635Z,98928.23
2019-04-20T13:15:10.676Z,98920.79
2019-04-20T13:17:42.218Z,98911.52
2019-04-20T13:20:13.883Z,98914.70
2019-04-20T13:22:44.420Z,98908.03
2019-04-20T13:25:15.013Z,98909.73
2019-04-20T13:27:45.300Z,98901.61
2019-04-20T13:30:16.940Z,98900.45
2019-04-20T13:32:47.838Z,98896.44
2019-04-20T13:35:18.420Z,98896.44
2019-04-20T13:37:49.859Z,98897.27
2019-04-20T13:40:21.800Z,98890.14
2019-04-20T13:42:53.897Z,98883.05
2019-04-20T13:45:24.682Z,98884.55
2019-04-20T13:47:55.148Z,98880.73
2019-04-20T13:50:26.264Z,98882.59
2019-04-20T13:52:56.605Z,98878.08
2019-04-20T13:55:27.332Z,98873.30
2019-04-20T13:58:13.902Z,98869.98
2019-04-20T14:00:58.976Z,98869.19
2019-04-20T14:03:31.282Z,98867.03
2019-04-20T14:06:02.720Z,98858.23
2019-04-20T14:08:35.566Z,98851.94
2019-04-20T14:11:07.327Z,98839.33
2019-04-20T14:13:43.710Z,98837.86
2019-04-20T14:16:09.695Z,98837.69
2019-04-20T14:18:41.018Z,98838.67
2019-04-20T14:21:12.248Z,98825.58
2019-04-20T14:23:43.249Z,98822.62
2019-04-20T14:26:14.689Z,98828.44
2019-04-20T14:28:45.150Z,98827.09
2019-04-20T14:31:16.116Z,98827.09
2019-04-20T14:33:46.733Z,98824.93
2019-04-20T14:36:17.093Z,98821.75
2019-04-20T14:38:48.668Z,98817.45
2019-04-20T14:41:20.150Z,98815.63
2019-04-20T14:43:51.219Z,98816.44
2019-04-20T14:46:22.911Z,98810.66
2019-04-20T14:48:54.877Z,98811.48
2019-04-20T14:51:25.779Z,98807.64
2019-04-20T14:53:56.126Z,98794.84
2019-04-20T14:56:27.391Z,98794.34
2019-04-20T14:59:02.358Z,98793.62
2019-04-20T15:01:34.715Z,98785.29
2019-04-20T15:04:11.482Z,98783.98
2019-04-20T15:06:39.724Z,98788.72
2019-04-20T15:09:10.830Z,98781.16
2019-04-20T15:11:42.951Z,98778.62
2019-04-20T15:14:14.441Z,98773.13
2019-04-20T15:16:44.802Z,98768.17
2019-04-20T15:19:17.842Z,98770.16
2019-04-20T15:21:53.471Z,98777.42
2019-04-20T15:24:23.853Z,98763.78
2019-04-20T15:26:54.289Z,98761.50
2019-04-20T15:29:24.616Z,98751.22
2019-04-20T15:31:54.895Z,98755.81
2019-04-20T15:34:26.790Z,98751.75
2019-04-20T15:36:58.191Z,98748.94
2019-04-20T15:39:29.211Z,98754.00
2019-04-20T15:42:01.237Z,98747.60
2019-04-20T15:44:33.440Z,98746.54
2019-04-20T15:47:03.809Z,98751.93
2019-04-20T15:49:35.760Z,98734.33
2019-04-20T15:52:06.219Z,98736.20
2019-04-20T15:54:37.772Z,98735.45
2019-04-20T15:57:14.572Z,98735.16
2019-04-20T15:59:40.268Z,98736.33
2019-04-20T16:02:13.463Z,98732.86
2019-04-20T16:04:48.798Z,98733.61
2019-04-20T16:07:21.457Z,98729.67
2019-04-20T16:09:51.784Z,98731.93
2019-04-20T16:12:22.891Z,98723.91
2019-04-20T16:14:53.567Z,98728.36
2019-04-20T16:17:32.789Z,98722.86
2019-04-20T16:20:06.004Z,98726.13
2019-04-20T16:22:30.937Z,98720.77
2019-04-20T16:25:05.815Z,98711.28
2019-04-20T16:27:38.040Z,98712.85
2019-04-20T16:30:09.672Z,98714.38
2019-04-20T16:32:40.699Z,98706.42
2019-04-20T16:35:11.470Z,98709.59
2019-04-20T16:37:42.438Z,98709.28
2019-04-20T16:40:13.766Z,98701.22
2019-04-20T16:42:45.465Z,98697.95
2019-04-20T16:45:17.187Z,98695.01
2019-04-20T16:47:48.207Z,98696.23
2019-04-20T16:50:19.285Z,98693.20
2019-04-20T16:52:50.810Z,98689.73
2019-04-20T16:55:21.341Z,98684.42
2019-04-20T16:57:52.911Z,98687.05
2019-04-20T17:00:23.604Z,98677.57
2019-04-20T17:02:54.335Z,98683.17
2019-04-20T17:05:25.580Z,98684.25
2019-04-20T17:08:00.840Z,98679.52
2019-04-20T17:10:31.178Z,98677.63
2019-04-20T17:13:01.932Z,98674.79
2019-04-20T17:15:33.868Z,98679.57
2019-04-20T17:18:05.577Z,98674.52
2019-04-20T17:20:36.805Z,98679.52
2019-04-20T17:23:10.248Z,98684.87
2019-04-20T17:25:39.891Z,98681.92
2019-04-20T17:28:24.818Z,98682.25
2019-04-20T17:31:00.663Z,98682.92
2019-04-20T17:33:47.168Z,98680.41
2019-04-20T17:36:16.721Z,98679.41
2019-04-20T17:38:44.580Z,98684.69
2019-04-20T17:41:34.441Z,98677.38
2019-04-20T17:44:05.477Z,98683.47
2019-04-20T17:46:27.273Z,98686.74
2019-04-20T17:49:05.533Z,98690.51
2019-04-20T17:51:39.972Z,98691.29
2019-04-20T17:53:58.545Z,98692.07
2019-04-20T17:56:26.469Z,98691.02
2019-04-20T17:58:56.814Z,98694.11
2019-04-20T18:01:41.238Z,98693.09
2019-04-20T18:04:34.076Z,98696.00
2019-04-20T18:06:50.455Z,98699.06
2019-04-20T18:09:34.830Z,98692.50
2019-04-20T18:11:48.501Z,98698.70
2019-04-20T18:14:31.435Z,98697.95
2019-04-20T18:17:13.841Z,98700.34
2019-04-20T18:19:36.741Z,98705.23
2019-04-20T18:22:09.863Z,98699.36
2019-04-20T18:25:02.569Z,98693.33
2019-04-20T18:27:32.037Z,98693.06
2019-04-20T18:30:01.422Z,98695.28
2019-04-20T18:32:33.578Z,98701.94
2019-04-20T18:35:08.396Z,98705.13
2019-04-20T18:37:39.711Z,98699.95
2019-04-20T18:40:14.311Z,98695.73
2019-04-20T18:42:45.295Z,98704.70
2019-04-20T18:45:29.651Z,98699.34
2019-04-20T18:48:07.550Z,98700.23
2019-04-20T18:50:27.621Z,98701.81
2019-04-20T18:52:53.849Z,98711.13
2019-04-20T18:55:34.190Z,98710.57
2019-04-20T18:57:57.296Z,98710.77
2019-04-20T19:00:33.639Z,98710.20
2019-04-20T19:03:09.620Z,98714.88
2019-04-20T19:05:31.924Z,98714.80
2019-04-20T19:08:11.380Z,98712.05
2019-04-20T19:10:41.749Z,98713.94
2019-04-20T19:13:22.435Z,98713.67
2019-04-20T19:16:00.237Z,98712.61
2019-04-20T19:18:47.754Z,98712.99
2019-04-20T19:21:01.793Z,98716.56
2019-04-20T19:23:35.185Z,98724.39
2019-04-20T19:26:09.573Z,98719.52
2019-04-20T19:28:44.495Z,98725.71
2019-04-20T19:31:25.300Z,98723.45
2019-04-20T19:34:00.840Z,98716.48
2019-04-20T19:36:25.581Z,98720.65
2019-04-20T19:39:01.799Z,98716.41
2019-04-20T19:41:29.849Z,98717.47
2019-04-20T19:44:05.280Z,98717.39
2019-04-20T19:49:04.128Z,98718.19
2019-04-20T19:51:49.358Z,98715.65
2019-04-20T19:54:17.999Z,98723.97
2019-04-20T19:56:46.568Z,98725.49
2019-04-20T19:59:13.406Z,98730.02
2019-04-20T20:01:33.799Z,98743.10
2019-04-20T20:04:07.606Z,98741.11
2019-04-20T20:06:43.680Z,98741.98
2019-04-20T20:09:12.630Z,98736.89
2019-04-20T20:11:44.435Z,98739.23
2019-04-20T20:14:16.939Z,98742.42
2019-04-20T20:17:04.122Z,98743.36
2019-04-20T20:19:32.695Z,98751.33
2019-04-20T20:22:02.304Z,98749.72
2019-04-20T20:24:21.415Z,98750.23
2019-04-20T20:26:58.462Z,98751.23
2019-04-20T20:29:32.702Z,98749.72
2019-04-20T20:32:11.693Z,98758.06
2019-04-20T20:34:36.370Z,98760.48
2019-04-20T20:37:04.222Z,98760.64
2019-04-20T20:39:35.122Z,98768.06
2019-04-20T20:42:21.958Z,98762.62
2019-04-20T20:44:45.003Z,98764.91
2019-04-20T20:47:31.484Z,98762.66
2019-04-20T20:50:08.762Z,98763.94
2019-04-20T20:52:30.178Z,98764.52
2019-04-20T20:54:56.306Z,98771.88
2019-04-20T20:57:23.937Z,98769.95
2019-04-20T20:59:55.301Z,98774.80
2019-04-20T21:02:33.894Z,98776.69
2019-04-20T21:04:53.555Z,98776.94
2019-04-20T21:07:24.722Z,98780.19
2019-04-20T21:09:56.168Z,98780.17
2019-04-20T21:12:27.068Z,98777.52
2019-04-20T21:15:00.400Z,98778.14
2019-04-20T21:17:39.337Z,98777.27
2019-04-20T21:20:15.649Z,98782.94
2019-04-20T21:22:51.694Z,98785.33
2019-04-20T21:25:16.949Z,98790.02
2019-04-20T21:27:48.443Z,98788.23
2019-04-20T21:30:30.839Z,98787.28
2019-04-20T21:32:54.316Z,98785.54
2019-04-20T21:35:23.857Z,98784.22
2019-04-20T21:38:00.473Z,98783.50
2019-04-20T21:40:33.968Z,98778.27
2019-04-20T21:43:02.383Z,98780.22
2019-04-20T21:45:33.870Z,98778.52
2019-04-20T21:48:10.030Z,98776.28
2019-04-20T21:50:53.509Z,98778.80
2019-04-20T21:53:15.500Z,98782.30
2019-04-20T21:55:37.751Z,98780.20
2019-04-20T21:58:09.105Z,98775.52
2019-04-20T22:00:48.305Z,98776.95
2019-04-20T22:03:18.451Z,98778.55
2019-04-20T22:05:50.321Z,98776.66
2019-04-20T22:08:22.186Z,98778.56
2019-04-20T22:10:53.473Z,98780.80
2019-04-20T22:13:29.370Z,98776.83
2019-04-20T22:16:01.981Z,98774.48
2019-04-20T22:18:28.784Z,98777.39
2019-04-20T22:21:11.186Z,98777.05
2019-04-20T22:23:47.518Z,98778.55
2019-04-20T22:26:12.025Z,98776.73
2019-04-20T22:28:36.213Z,98775.87
2019-04-20T22:31:06.611Z,98776.23
2019-04-20T22:33:41.226Z,98773.50
2019-04-20T22:36:11.391Z,98768.55
2019-04-20T22:39:02.896Z,98768.61
2019-04-20T22:41:36.345Z,98765.77
2019-04-20T22:44:12.404Z,98761.55
2019-04-20T22:46:41.894Z,98757.95
2019-04-20T22:49:28.185Z,98763.93
2019-04-20T22:51:53.195Z,98760.84
2019-04-20T22:54:33.732Z,98758.41
2019-04-20T22:56:57.326Z,98758.31
2019-04-20T22:59:23.380Z,98754.77
2019-04-20T23:01:55.227Z,98751.02
2019-04-20T23:04:22.859Z,98749.30
2019-04-20T23:06:54.118Z,98752.03
2019-04-20T23:09:25.152Z,98742.97
2019-04-20T23:12:06.028Z,98741.97
2019-04-20T23:14:28.680Z,98738.56
2019-04-20T23:16:59.781Z,98738.24
2019-04-20T23:19:38.258Z,98735.91
2019-04-20T23:22:05.258Z,98728.71
2019-04-20T23:24:35.226Z,98726.86
2019-04-20T23:27:13.947Z,98724.55
2019-04-20T23:29:40.071Z,98722.86
2019-04-20T23:32:12.626Z,98715.91
2019-04-20T23:34:44.657Z,98707.88
2019-04-20T23:37:20.078Z,98710.92
2019-04-20T23:39:48.938Z,98710.55
2019-04-20T23:42:40.202Z,98706.84
2019-04-20T23:45:11.564Z,98703.99
2019-04-20T23:47:47.842Z,98704.77
2019-04-20T23:50:38.223Z,98704.54
2019-04-20T23:53:06.739Z,98701.34
2019-04-20T23:55:21.371Z,98700.44
2019-04-20T23:57:57.916Z,98702.77
